sensor_id;sensor_type;location;lat;lon;timestamp;temperature;humidity
10051;DHT22;5065;46.942;7.432;2024-02-23T00:02:26;8.70;99.90
10051;DHT22;5065;46.942;7.432;2024-02-23T00:04:54;8.70;99.90
10051;DHT22;5065;46.942;7.432;2024-02-23T00:07:21;8.60;99.90
10051;DHT22;5065;46.942;7.432;2024-02-23T00:09:48;8.60;99.90
10051;DHT22;5065;46.942;7.432;2024-02-23T00:12:16;8.60;99.90
10051;DHT22;5065;46.942;7.432;2024-02-23T00:14:43;8.60;99.90
10051;DHT22;5065;46.942;7.432;2024-02-23T00:17:10;8.60;99.90
10051;DHT22;5065;46.942;7.432;2024-02-23T00:19:37;8.60;99.90
10051;DHT22;5065;46.942;7.432;2024-02-23T00:22:06;8.60;99.90
10051;DHT22;5065;46.942;7.432;2024-02-23T00:24:33;8.70;99.90
10051;DHT22;5065;46.942;7.432;2024-02-23T00:27:02;8.60;99.90
10051;DHT22;5065;46.942;7.432;2024-02-23T00:29:29;8.60;99.90
10051;DHT22;5065;46.942;7.432;2024-02-23T00:31:56;8.50;99.90
10051;DHT22;5065;46.942;7.432;2024-02-23T00:34:23;8.50;99.90
10051;DHT22;5065;46.942;7.432;2024-02-23T00:36:51;8.50;99.90
10051;DHT22;5065;46.942;7.432;2024-02-23T00:39:21;8.50;99.90
10051;DHT22;5065;46.942;7.432;2024-02-23T00:41:48;8.40;99.90
10051;DHT22;5065;46.942;7.432;2024-02-23T00:44:15;8.50;99.90
10051;DHT22;5065;46.942;7.432;2024-02-23T00:46:42;8.50;99.90
10051;DHT22;5065;46.942;7.432;2024-02-23T00:49:09;8.50;99.90
10051;DHT22;5065;46.942;7.432;2024-02-23T00:51:36;8.50;99.90
10051;DHT22;5065;46.942;7.432;2024-02-23T00:54:04;8.50;99.90
10051;DHT22;5065;46.942;7.432;2024-02-23T00:56:33;8.50;99.90
10051;DHT22;5065;46.942;7.432;2024-02-23T00:59:01;8.50;99.90
10051;DHT22;5065;46.942;7.432;2024-02-23T01:01:28;8.60;99.90
10051;DHT22;5065;46.942;7.432;2024-02-23T01:03:55;8.50;99.90
10051;DHT22;5065;46.942;7.432;2024-02-23T01:06:23;8.50;99.90
10051;DHT22;5065;46.942;7.432;2024-02-23T01:08:51;8.40;99.90
10051;DHT22;5065;46.942;7.432;2024-02-23T01:11:18;8.40;99.90
10051;DHT22;5065;46.942;7.432;2024-02-23T01:13:46;8.40;99.90
10051;DHT22;5065;46.942;7.432;2024-02-23T01:16:13;8.40;99.90
10051;DHT22;5065;46.942;7.432;2024-02-23T01:18:41;8.30;99.90
10051;DHT22;5065;46.942;7.432;2024-02-23T01:21:08;8.30;99.90
10051;DHT22;5065;46.942;7.432;2024-02-23T01:23:35;8.20;99.90
10051;DHT22;5065;46.942;7.432;2024-02-23T01:26:02;8.30;99.90
10051;DHT22;5065;46.942;7.432;2024-02-23T01:28:29;8.30;99.90
10051;DHT22;5065;46.942;7.432;2024-02-23T01:30:58;8.20;99.90
10051;DHT22;5065;46.942;7.432;2024-02-23T01:33:25;8.30;99.90
10051;DHT22;5065;46.942;7.432;2024-02-23T01:35:52;8.20;99.90
10051;DHT22;5065;46.942;7.432;2024-02-23T01:38:19;8.20;99.90
10051;DHT22;5065;46.942;7.432;2024-02-23T01:40:47;8.10;99.90
10051;DHT22;5065;46.942;7.432;2024-02-23T01:43:15;8.10;99.90
10051;DHT22;5065;46.942;7.432;2024-02-23T01:45:42;8.10;99.90
10051;DHT22;5065;46.942;7.432;2024-02-23T01:48:10;8.00;99.90
10051;DHT22;5065;46.942;7.432;2024-02-23T01:50:38;8.00;99.90
10051;DHT22;5065;46.942;7.432;2024-02-23T01:53:06;8.00;99.90
10051;DHT22;5065;46.942;7.432;2024-02-23T01:55:33;8.00;99.90
10051;DHT22;5065;46.942;7.432;2024-02-23T01:58:01;8.00;99.90
10051;DHT22;5065;46.942;7.432;2024-02-23T02:00:29;8.00;99.90
10051;DHT22;5065;46.942;7.432;2024-02-23T02:02:57;8.00;99.90
10051;DHT22;5065;46.942;7.432;2024-02-23T02:05:26;8.00;99.90
10051;DHT22;5065;46.942;7.432;2024-02-23T02:07:55;8.00;99.90
10051;DHT22;5065;46.942;7.432;2024-02-23T02:10:24;7.90;99.90
10051;DHT22;5065;46.942;7.432;2024-02-23T02:12:52;7.90;99.90
10051;DHT22;5065;46.942;7.432;2024-02-23T02:15:19;7.90;99.90
10051;DHT22;5065;46.942;7.432;2024-02-23T02:17:47;7.80;99.90
10051;DHT22;5065;46.942;7.432;2024-02-23T02:20:14;7.90;99.90
10051;DHT22;5065;46.942;7.432;2024-02-23T02:22:46;7.90;99.90
10051;DHT22;5065;46.942;7.432;2024-02-23T02:25:14;7.90;99.90
10051;DHT22;5065;46.942;7.432;2024-02-23T02:27:41;8.00;99.90
10051;DHT22;5065;46.942;7.432;2024-02-23T02:30:11;7.90;99.90
10051;DHT22;5065;46.942;7.432;2024-02-23T02:32:38;7.90;99.90
10051;DHT22;5065;46.942;7.432;2024-02-23T02:35:06;8.00;99.90
10051;DHT22;5065;46.942;7.432;2024-02-23T02:37:34;7.90;99.90
10051;DHT22;5065;46.942;7.432;2024-02-23T02:40:03;7.90;99.90
10051;DHT22;5065;46.942;7.432;2024-02-23T02:42:30;7.90;99.90
10051;DHT22;5065;46.942;7.432;2024-02-23T02:44:58;7.90;99.90
10051;DHT22;5065;46.942;7.432;2024-02-23T02:47:25;7.80;99.90
10051;DHT22;5065;46.942;7.432;2024-02-23T02:49:52;7.90;99.90
10051;DHT22;5065;46.942;7.432;2024-02-23T02:52:19;7.90;99.90
10051;DHT22;5065;46.942;7.432;2024-02-23T02:54:48;7.90;99.90
10051;DHT22;5065;46.942;7.432;2024-02-23T02:57:17;8.00;99.90
10051;DHT22;5065;46.942;7.432;2024-02-23T02:59:44;7.90;99.90
10051;DHT22;5065;46.942;7.432;2024-02-23T03:02:11;7.90;99.90
10051;DHT22;5065;46.942;7.432;2024-02-23T03:04:38;7.90;99.90
10051;DHT22;5065;46.942;7.432;2024-02-23T03:07:06;7.90;99.90
10051;DHT22;5065;46.942;7.432;2024-02-23T03:09:33;7.90;99.90
10051;DHT22;5065;46.942;7.432;2024-02-23T03:12:00;7.80;99.90
10051;DHT22;5065;46.942;7.432;2024-02-23T03:14:28;7.80;99.90
10051;DHT22;5065;46.942;7.432;2024-02-23T03:16:55;7.80;99.90
10051;DHT22;5065;46.942;7.432;2024-02-23T03:19:22;7.90;99.90
10051;DHT22;5065;46.942;7.432;2024-02-23T03:21:50;7.90;99.90
10051;DHT22;5065;46.942;7.432;2024-02-23T03:24:17;7.80;99.90
10051;DHT22;5065;46.942;7.432;2024-02-23T03:26:44;7.80;99.90
10051;DHT22;5065;46.942;7.432;2024-02-23T03:29:11;7.80;99.90
10051;DHT22;5065;46.942;7.432;2024-02-23T03:31:40;7.80;99.90
10051;DHT22;5065;46.942;7.432;2024-02-23T03:34:07;7.80;99.90
10051;DHT22;5065;46.942;7.432;2024-02-23T03:36:34;7.70;99.90
10051;DHT22;5065;46.942;7.432;2024-02-23T03:39:03;7.80;99.90
10051;DHT22;5065;46.942;7.432;2024-02-23T03:41:30;7.70;99.90
10051;DHT22;5065;46.942;7.432;2024-02-23T03:43:57;7.80;99.90
10051;DHT22;5065;46.942;7.432;2024-02-23T03:46:24;7.90;99.90
10051;DHT22;5065;46.942;7.432;2024-02-23T03:48:53;7.80;99.90
10051;DHT22;5065;46.942;7.432;2024-02-23T03:51:20;7.70;99.90
10051;DHT22;5065;46.942;7.432;2024-02-23T03:53:47;7.80;99.90
10051;DHT22;5065;46.942;7.432;2024-02-23T03:56:14;7.80;99.90
10051;DHT22;5065;46.942;7.432;2024-02-23T03:58:41;7.80;99.90
10051;DHT22;5065;46.942;7.432;2024-02-23T04:01:08;7.70;99.90
10051;DHT22;5065;46.942;7.432;2024-02-23T04:03:35;7.70;99.90
10051;DHT22;5065;46.942;7.432;2024-02-23T04:06:04;7.70;99.90
10051;DHT22;5065;46.942;7.432;2024-02-23T04:08:32;7.70;99.90
10051;DHT22;5065;46.942;7.432;2024-02-23T04:10:59;7.70;99.90
10051;DHT22;5065;46.942;7.432;2024-02-23T04:13:26;7.70;99.90
10051;DHT22;5065;46.942;7.432;2024-02-23T04:15:53;7.60;99.90
10051;DHT22;5065;46.942;7.432;2024-02-23T04:18:23;7.60;99.90
10051;DHT22;5065;46.942;7.432;2024-02-23T04:20:50;7.60;99.90
10051;DHT22;5065;46.942;7.432;2024-02-23T04:23:19;7.60;99.90
10051;DHT22;5065;46.942;7.432;2024-02-23T04:25:46;7.60;99.90
10051;DHT22;5065;46.942;7.432;2024-02-23T04:28:13;7.50;99.90
10051;DHT22;5065;46.942;7.432;2024-02-23T04:30:40;7.50;99.90
10051;DHT22;5065;46.942;7.432;2024-02-23T04:33:07;7.50;99.90
10051;DHT22;5065;46.942;7.432;2024-02-23T04:35:34;7.50;99.90
10051;DHT22;5065;46.942;7.432;2024-02-23T04:38:02;7.50;99.90
10051;DHT22;5065;46.942;7.432;2024-02-23T04:40:30;7.50;99.90
10051;DHT22;5065;46.942;7.432;2024-02-23T04:42:57;7.50;99.90
10051;DHT22;5065;46.942;7.432;2024-02-23T04:45:24;7.50;99.90
10051;DHT22;5065;46.942;7.432;2024-02-23T04:47:52;7.50;99.90
10051;DHT22;5065;46.942;7.432;2024-02-23T04:50:19;7.50;99.90
10051;DHT22;5065;46.942;7.432;2024-02-23T04:52:46;7.50;99.90
10051;DHT22;5065;46.942;7.432;2024-02-23T04:55:13;7.40;99.90
10051;DHT22;5065;46.942;7.432;2024-02-23T04:57:41;7.40;99.90
10051;DHT22;5065;46.942;7.432;2024-02-23T05:00:09;7.40;99.90
10051;DHT22;5065;46.942;7.432;2024-02-23T05:02:37;7.40;99.90
10051;DHT22;5065;46.942;7.432;2024-02-23T05:05:04;7.40;99.90
10051;DHT22;5065;46.942;7.432;2024-02-23T05:07:31;7.40;99.90
10051;DHT22;5065;46.942;7.432;2024-02-23T05:10:00;7.30;99.90
10051;DHT22;5065;46.942;7.432;2024-02-23T05:12:27;7.30;99.90
10051;DHT22;5065;46.942;7.432;2024-02-23T05:14:55;7.30;99.90
10051;DHT22;5065;46.942;7.432;2024-02-23T05:17:22;7.40;99.90
10051;DHT22;5065;46.942;7.432;2024-02-23T05:19:49;7.30;99.90
10051;DHT22;5065;46.942;7.432;2024-02-23T05:22:17;7.30;99.90
10051;DHT22;5065;46.942;7.432;2024-02-23T05:24:44;7.30;99.90
10051;DHT22;5065;46.942;7.432;2024-02-23T05:27:11;7.30;99.90
10051;DHT22;5065;46.942;7.432;2024-02-23T05:29:38;7.30;99.90
10051;DHT22;5065;46.942;7.432;2024-02-23T05:32:07;7.20;99.90
10051;DHT22;5065;46.942;7.432;2024-02-23T05:34:34;7.30;99.90
10051;DHT22;5065;46.942;7.432;2024-02-23T05:37:02;7.20;99.90
10051;DHT22;5065;46.942;7.432;2024-02-23T05:39:29;7.20;99.90
10051;DHT22;5065;46.942;7.432;2024-02-23T05:41:57;7.20;99.90
10051;DHT22;5065;46.942;7.432;2024-02-23T05:44:25;7.20;99.90
10051;DHT22;5065;46.942;7.432;2024-02-23T05:46:52;7.30;99.90
10051;DHT22;5065;46.942;7.432;2024-02-23T05:49:21;7.20;99.90
10051;DHT22;5065;46.942;7.432;2024-02-23T05:51:48;7.20;99.90
10051;DHT22;5065;46.942;7.432;2024-02-23T05:54:15;7.20;99.90
10051;DHT22;5065;46.942;7.432;2024-02-23T05:56:43;7.20;99.90
10051;DHT22;5065;46.942;7.432;2024-02-23T05:59:10;7.10;99.90
10051;DHT22;5065;46.942;7.432;2024-02-23T06:01:37;7.10;99.90
10051;DHT22;5065;46.942;7.432;2024-02-23T06:04:04;7.10;99.90
10051;DHT22;5065;46.942;7.432;2024-02-23T06:06:33;7.10;99.90
10051;DHT22;5065;46.942;7.432;2024-02-23T06:09:00;7.10;99.90
10051;DHT22;5065;46.942;7.432;2024-02-23T06:11:29;7.00;99.90
10051;DHT22;5065;46.942;7.432;2024-02-23T06:13:56;7.00;99.90
10051;DHT22;5065;46.942;7.432;2024-02-23T06:16:23;6.90;99.90
10051;DHT22;5065;46.942;7.432;2024-02-23T06:18:50;6.90;99.90
10051;DHT22;5065;46.942;7.432;2024-02-23T06:21:17;6.90;99.90
10051;DHT22;5065;46.942;7.432;2024-02-23T06:23:46;6.80;99.90
10051;DHT22;5065;46.942;7.432;2024-02-23T06:26:13;6.80;99.90
10051;DHT22;5065;46.942;7.432;2024-02-23T06:28:40;6.90;99.90
10051;DHT22;5065;46.942;7.432;2024-02-23T06:31:08;6.90;99.90
10051;DHT22;5065;46.942;7.432;2024-02-23T06:33:36;6.80;99.90
10051;DHT22;5065;46.942;7.432;2024-02-23T06:36:03;6.90;99.90
10051;DHT22;5065;46.942;7.432;2024-02-23T06:38:31;6.80;99.90
10051;DHT22;5065;46.942;7.432;2024-02-23T06:40:59;6.80;99.90
10051;DHT22;5065;46.942;7.432;2024-02-23T06:43:26;6.80;99.90
10051;DHT22;5065;46.942;7.432;2024-02-23T06:45:53;6.80;99.90
10051;DHT22;5065;46.942;7.432;2024-02-23T06:48:20;6.70;99.90
10051;DHT22;5065;46.942;7.432;2024-02-23T06:50:48;6.70;99.90
10051;DHT22;5065;46.942;7.432;2024-02-23T06:53:15;6.70;99.90
10051;DHT22;5065;46.942;7.432;2024-02-23T06:55:42;6.80;99.90
10051;DHT22;5065;46.942;7.432;2024-02-23T06:58:10;6.70;99.90
10051;DHT22;5065;46.942;7.432;2024-02-23T07:00:39;6.70;99.90
10051;DHT22;5065;46.942;7.432;2024-02-23T07:03:06;6.60;99.90
10051;DHT22;5065;46.942;7.432;2024-02-23T07:05:33;6.60;99.90
10051;DHT22;5065;46.942;7.432;2024-02-23T07:08:01;6.60;99.90
10051;DHT22;5065;46.942;7.432;2024-02-23T07:10:28;6.60;99.90
10051;DHT22;5065;46.942;7.432;2024-02-23T07:12:55;6.70;99.90
10051;DHT22;5065;46.942;7.432;2024-02-23T07:15:25;6.70;99.90
10051;DHT22;5065;46.942;7.432;2024-02-23T07:17:52;6.70;99.90
10051;DHT22;5065;46.942;7.432;2024-02-23T07:20:19;6.70;99.90
10051;DHT22;5065;46.942;7.432;2024-02-23T07:22:47;6.80;99.90
10051;DHT22;5065;46.942;7.432;2024-02-23T07:25:16;6.90;99.90
10051;DHT22;5065;46.942;7.432;2024-02-23T07:27:43;6.90;99.90
10051;DHT22;5065;46.942;7.432;2024-02-23T07:30:11;6.90;99.90
10051;DHT22;5065;46.942;7.432;2024-02-23T07:32:40;7.00;99.90
10051;DHT22;5065;46.942;7.432;2024-02-23T07:35:08;7.10;99.90
10051;DHT22;5065;46.942;7.432;2024-02-23T07:37:35;7.30;99.90
10051;DHT22;5065;46.942;7.432;2024-02-23T07:40:03;7.50;99.90
10051;DHT22;5065;46.942;7.432;2024-02-23T07:42:32;7.70;99.90
10051;DHT22;5065;46.942;7.432;2024-02-23T07:45:01;7.90;99.90
10051;DHT22;5065;46.942;7.432;2024-02-23T07:47:30;8.10;99.90
10051;DHT22;5065;46.942;7.432;2024-02-23T07:49:58;8.30;99.90
10051;DHT22;5065;46.942;7.432;2024-02-23T07:52:26;8.60;99.90
10051;DHT22;5065;46.942;7.432;2024-02-23T07:54:53;8.90;99.90
10051;DHT22;5065;46.942;7.432;2024-02-23T07:57:21;9.30;99.90
10051;DHT22;5065;46.942;7.432;2024-02-23T07:59:48;9.60;99.90
10051;DHT22;5065;46.942;7.432;2024-02-23T08:02:15;9.90;99.90
10051;DHT22;5065;46.942;7.432;2024-02-23T08:04:42;10.10;99.90
10051;DHT22;5065;46.942;7.432;2024-02-23T08:07:11;10.40;99.90
10051;DHT22;5065;46.942;7.432;2024-02-23T08:09:38;10.70;99.90
10051;DHT22;5065;46.942;7.432;2024-02-23T08:12:06;11.00;99.90
10051;DHT22;5065;46.942;7.432;2024-02-23T08:14:33;11.20;99.90
10051;DHT22;5065;46.942;7.432;2024-02-23T08:17:00;11.40;99.90
10051;DHT22;5065;46.942;7.432;2024-02-23T08:19:27;11.70;99.90
10051;DHT22;5065;46.942;7.432;2024-02-23T08:21:54;11.90;99.90
10051;DHT22;5065;46.942;7.432;2024-02-23T08:24:24;12.20;99.90
10051;DHT22;5065;46.942;7.432;2024-02-23T08:26:52;12.40;99.90
10051;DHT22;5065;46.942;7.432;2024-02-23T08:29:20;12.50;99.90
10051;DHT22;5065;46.942;7.432;2024-02-23T08:31:47;12.60;99.90
10051;DHT22;5065;46.942;7.432;2024-02-23T08:34:14;12.70;99.90
10051;DHT22;5065;46.942;7.432;2024-02-23T08:36:43;12.70;99.90
10051;DHT22;5065;46.942;7.432;2024-02-23T08:39:10;12.80;99.90
10051;DHT22;5065;46.942;7.432;2024-02-23T08:41:39;12.80;99.90
10051;DHT22;5065;46.942;7.432;2024-02-23T08:44:07;12.70;99.90
10051;DHT22;5065;46.942;7.432;2024-02-23T08:46:34;12.80;99.90
10051;DHT22;5065;46.942;7.432;2024-02-23T08:49:03;12.80;99.90
10051;DHT22;5065;46.942;7.432;2024-02-23T08:51:30;12.80;99.90
10051;DHT22;5065;46.942;7.432;2024-02-23T08:53:57;12.90;99.90
10051;DHT22;5065;46.942;7.432;2024-02-23T08:56:28;12.90;99.90
10051;DHT22;5065;46.942;7.432;2024-02-23T08:58:57;12.90;99.90
10051;DHT22;5065;46.942;7.432;2024-02-23T09:01:24;12.90;99.90
10051;DHT22;5065;46.942;7.432;2024-02-23T09:03:52;13.00;99.90
10051;DHT22;5065;46.942;7.432;2024-02-23T09:06:19;13.00;99.90
10051;DHT22;5065;46.942;7.432;2024-02-23T09:08:46;13.10;99.90
10051;DHT22;5065;46.942;7.432;2024-02-23T09:11:13;13.10;99.90
10051;DHT22;5065;46.942;7.432;2024-02-23T09:13:41;13.00;99.90
10051;DHT22;5065;46.942;7.432;2024-02-23T09:16:09;13.00;99.90
10051;DHT22;5065;46.942;7.432;2024-02-23T09:18:36;13.00;99.90
10051;DHT22;5065;46.942;7.432;2024-02-23T09:21:04;13.00;99.90
10051;DHT22;5065;46.942;7.432;2024-02-23T09:23:31;13.00;99.90
10051;DHT22;5065;46.942;7.432;2024-02-23T09:25:59;13.00;99.90
10051;DHT22;5065;46.942;7.432;2024-02-23T09:28:26;13.10;99.90
10051;DHT22;5065;46.942;7.432;2024-02-23T09:30:53;13.10;99.90
10051;DHT22;5065;46.942;7.432;2024-02-23T09:33:22;13.10;99.90
10051;DHT22;5065;46.942;7.432;2024-02-23T09:35:49;13.20;99.90
10051;DHT22;5065;46.942;7.432;2024-02-23T09:38:16;13.20;99.90
10051;DHT22;5065;46.942;7.432;2024-02-23T09:40:44;13.20;99.90
10051;DHT22;5065;46.942;7.432;2024-02-23T09:43:11;13.20;99.90
10051;DHT22;5065;46.942;7.432;2024-02-23T09:45:39;13.20;99.90
10051;DHT22;5065;46.942;7.432;2024-02-23T09:48:07;13.20;99.90
10051;DHT22;5065;46.942;7.432;2024-02-23T09:50:37;13.20;99.90
10051;DHT22;5065;46.942;7.432;2024-02-23T09:53:06;13.20;99.90
10051;DHT22;5065;46.942;7.432;2024-02-23T09:55:36;13.20;99.90
10051;DHT22;5065;46.942;7.432;2024-02-23T09:58:04;13.10;99.90
10051;DHT22;5065;46.942;7.432;2024-02-23T10:00:31;13.20;99.90
10051;DHT22;5065;46.942;7.432;2024-02-23T10:03:00;13.20;99.90
10051;DHT22;5065;46.942;7.432;2024-02-23T10:05:30;13.10;99.90
10051;DHT22;5065;46.942;7.432;2024-02-23T10:07:59;13.10;99.90
10051;DHT22;5065;46.942;7.432;2024-02-23T10:10:29;13.00;99.90
10051;DHT22;5065;46.942;7.432;2024-02-23T10:12:58;13.00;99.90
10051;DHT22;5065;46.942;7.432;2024-02-23T10:15:25;13.00;99.90
10051;DHT22;5065;46.942;7.432;2024-02-23T10:17:52;13.10;99.90
10051;DHT22;5065;46.942;7.432;2024-02-23T10:20:20;13.10;99.90
10051;DHT22;5065;46.942;7.432;2024-02-23T10:22:47;13.10;99.90
10051;DHT22;5065;46.942;7.432;2024-02-23T10:25:16;13.20;99.90
10051;DHT22;5065;46.942;7.432;2024-02-23T10:27:44;13.20;99.90
10051;DHT22;5065;46.942;7.432;2024-02-23T10:30:12;13.30;99.90
10051;DHT22;5065;46.942;7.432;2024-02-23T10:32:41;13.30;99.90
10051;DHT22;5065;46.942;7.432;2024-02-23T10:35:13;13.40;99.90
10051;DHT22;5065;46.942;7.432;2024-02-23T10:37:42;13.40;99.90
10051;DHT22;5065;46.942;7.432;2024-02-23T10:40:12;13.40;99.90
10051;DHT22;5065;46.942;7.432;2024-02-23T10:45:52;13.30;99.90
10051;DHT22;5065;46.942;7.432;2024-02-23T10:48:19;13.30;99.90
10051;DHT22;5065;46.942;7.432;2024-02-23T10:50:47;13.30;99.90
10051;DHT22;5065;46.942;7.432;2024-02-23T10:53:17;13.20;99.90
10051;DHT22;5065;46.942;7.432;2024-02-23T10:55:46;13.10;99.90
10051;DHT22;5065;46.942;7.432;2024-02-23T10:58:15;13.10;99.90
10051;DHT22;5065;46.942;7.432;2024-02-23T11:00:42;13.10;99.90
10051;DHT22;5065;46.942;7.432;2024-02-23T11:03:13;13.20;99.90
10051;DHT22;5065;46.942;7.432;2024-02-23T11:05:41;13.20;99.90
10051;DHT22;5065;46.942;7.432;2024-02-23T11:08:09;13.20;99.90
10051;DHT22;5065;46.942;7.432;2024-02-23T11:10:49;13.30;99.90
10051;DHT22;5065;46.942;7.432;2024-02-23T11:13:17;13.30;99.90
10051;DHT22;5065;46.942;7.432;2024-02-23T11:15:45;13.40;99.90
10051;DHT22;5065;46.942;7.432;2024-02-23T11:18:23;13.40;99.90
10051;DHT22;5065;46.942;7.432;2024-02-23T11:20:59;13.50;99.90
10051;DHT22;5065;46.942;7.432;2024-02-23T11:23:27;13.50;99.90
10051;DHT22;5065;46.942;7.432;2024-02-23T11:26:05;13.50;99.90
10051;DHT22;5065;46.942;7.432;2024-02-23T11:28:42;13.50;99.90
10051;DHT22;5065;46.942;7.432;2024-02-23T11:31:12;13.40;99.90
10051;DHT22;5065;46.942;7.432;2024-02-23T11:33:47;13.50;99.90
10051;DHT22;5065;46.942;7.432;2024-02-23T11:36:22;13.50;99.90
10051;DHT22;5065;46.942;7.432;2024-02-23T11:38:52;13.50;99.90
10051;DHT22;5065;46.942;7.432;2024-02-23T11:41:21;13.50;99.90
10051;DHT22;5065;46.942;7.432;2024-02-23T11:43:49;13.40;99.90
10051;DHT22;5065;46.942;7.432;2024-02-23T11:46:17;13.40;99.90
10051;DHT22;5065;46.942;7.432;2024-02-23T11:48:46;13.40;99.90
10051;DHT22;5065;46.942;7.432;2024-02-23T11:51:19;13.40;99.90
10051;DHT22;5065;46.942;7.432;2024-02-23T11:53:46;13.40;99.90
10051;DHT22;5065;46.942;7.432;2024-02-23T11:56:13;13.40;99.90
10051;DHT22;5065;46.942;7.432;2024-02-23T11:58:41;13.40;99.90
10051;DHT22;5065;46.942;7.432;2024-02-23T12:01:09;13.40;99.90
10051;DHT22;5065;46.942;7.432;2024-02-23T12:03:36;13.40;99.90
10051;DHT22;5065;46.942;7.432;2024-02-23T12:06:07;13.40;99.90
10051;DHT22;5065;46.942;7.432;2024-02-23T12:08:35;13.30;99.90
10051;DHT22;5065;46.942;7.432;2024-02-23T12:11:05;13.20;99.90
10051;DHT22;5065;46.942;7.432;2024-02-23T12:13:34;13.20;99.90
10051;DHT22;5065;46.942;7.432;2024-02-23T12:16:01;13.10;99.90
10051;DHT22;5065;46.942;7.432;2024-02-23T12:18:29;13.00;99.90
10051;DHT22;5065;46.942;7.432;2024-02-23T12:20:59;12.90;99.90
10051;DHT22;5065;46.942;7.432;2024-02-23T12:23:38;12.90;99.90
10051;DHT22;5065;46.942;7.432;2024-02-23T12:26:06;12.80;99.90
10051;DHT22;5065;46.942;7.432;2024-02-23T12:28:33;12.80;99.90
10051;DHT22;5065;46.942;7.432;2024-02-23T12:31:00;12.80;99.90
10051;DHT22;5065;46.942;7.432;2024-02-23T12:33:28;12.80;99.90
10051;DHT22;5065;46.942;7.432;2024-02-23T12:35:56;12.70;99.90
10051;DHT22;5065;46.942;7.432;2024-02-23T12:38:25;12.60;99.90
10051;DHT22;5065;46.942;7.432;2024-02-23T12:40:53;12.60;99.90
10051;DHT22;5065;46.942;7.432;2024-02-23T12:43:21;12.60;99.90
10051;DHT22;5065;46.942;7.432;2024-02-23T12:45:50;12.60;99.90
10051;DHT22;5065;46.942;7.432;2024-02-23T12:48:17;12.50;99.90
10051;DHT22;5065;46.942;7.432;2024-02-23T12:50:46;12.50;99.90
10051;DHT22;5065;46.942;7.432;2024-02-23T12:53:31;12.40;99.90
10051;DHT22;5065;46.942;7.432;2024-02-23T12:56:01;12.40;99.90
10051;DHT22;5065;46.942;7.432;2024-02-23T12:58:28;12.50;99.90
10051;DHT22;5065;46.942;7.432;2024-02-23T13:00:55;12.50;99.90
10051;DHT22;5065;46.942;7.432;2024-02-23T13:03:23;12.60;99.90
10051;DHT22;5065;46.942;7.432;2024-02-23T13:05:51;12.60;99.90
10051;DHT22;5065;46.942;7.432;2024-02-23T13:08:18;12.60;99.90
10051;DHT22;5065;46.942;7.432;2024-02-23T13:10:45;12.60;99.90
10051;DHT22;5065;46.942;7.432;2024-02-23T13:13:13;12.60;99.90
10051;DHT22;5065;46.942;7.432;2024-02-23T13:15:41;12.50;99.90
10051;DHT22;5065;46.942;7.432;2024-02-23T13:18:09;12.50;99.90
10051;DHT22;5065;46.942;7.432;2024-02-23T13:20:36;12.50;99.90
10051;DHT22;5065;46.942;7.432;2024-02-23T13:23:04;12.40;99.90
10051;DHT22;5065;46.942;7.432;2024-02-23T13:25:33;12.30;99.90
10051;DHT22;5065;46.942;7.432;2024-02-23T13:28:00;12.30;99.90
10051;DHT22;5065;46.942;7.432;2024-02-23T13:30:29;12.30;99.90
10051;DHT22;5065;46.942;7.432;2024-02-23T13:32:56;12.30;99.90
10051;DHT22;5065;46.942;7.432;2024-02-23T13:35:23;12.30;99.90
10051;DHT22;5065;46.942;7.432;2024-02-23T13:37:51;12.20;99.90
10051;DHT22;5065;46.942;7.432;2024-02-23T13:40:18;12.10;99.90
10051;DHT22;5065;46.942;7.432;2024-02-23T13:42:45;12.10;99.90
10051;DHT22;5065;46.942;7.432;2024-02-23T13:45:15;12.10;99.90
10051;DHT22;5065;46.942;7.432;2024-02-23T13:47:55;12.00;99.90
10051;DHT22;5065;46.942;7.432;2024-02-23T13:50:23;12.10;99.90
10051;DHT22;5065;46.942;7.432;2024-02-23T13:52:53;12.00;99.90
10051;DHT22;5065;46.942;7.432;2024-02-23T13:55:20;12.00;99.90
10051;DHT22;5065;46.942;7.432;2024-02-23T13:57:47;12.00;99.90
10051;DHT22;5065;46.942;7.432;2024-02-23T14:00:16;12.00;99.90
10051;DHT22;5065;46.942;7.432;2024-02-23T14:02:45;12.00;99.90
10051;DHT22;5065;46.942;7.432;2024-02-23T14:05:12;11.90;99.90
10051;DHT22;5065;46.942;7.432;2024-02-23T14:07:40;11.90;99.90
10051;DHT22;5065;46.942;7.432;2024-02-23T14:10:08;12.00;99.90
10051;DHT22;5065;46.942;7.432;2024-02-23T14:12:36;11.90;99.90
10051;DHT22;5065;46.942;7.432;2024-02-23T14:15:03;11.90;99.90
10051;DHT22;5065;46.942;7.432;2024-02-23T14:17:31;11.90;99.90
10051;DHT22;5065;46.942;7.432;2024-02-23T14:20:01;11.90;99.90
10051;DHT22;5065;46.942;7.432;2024-02-23T14:22:30;11.90;99.90
10051;DHT22;5065;46.942;7.432;2024-02-23T14:24:57;11.80;99.90
10051;DHT22;5065;46.942;7.432;2024-02-23T14:27:25;11.70;99.90
10051;DHT22;5065;46.942;7.432;2024-02-23T14:29:52;11.80;99.90
10051;DHT22;5065;46.942;7.432;2024-02-23T14:32:19;11.80;99.90
10051;DHT22;5065;46.942;7.432;2024-02-23T14:34:47;11.80;99.90
10051;DHT22;5065;46.942;7.432;2024-02-23T14:37:16;11.80;99.90
10051;DHT22;5065;46.942;7.432;2024-02-23T14:39:43;11.90;99.90
10051;DHT22;5065;46.942;7.432;2024-02-23T14:42:11;11.80;99.90
10051;DHT22;5065;46.942;7.432;2024-02-23T14:44:38;11.80;99.90
10051;DHT22;5065;46.942;7.432;2024-02-23T14:47:05;11.80;99.90
10051;DHT22;5065;46.942;7.432;2024-02-23T14:49:32;11.80;99.90
10051;DHT22;5065;46.942;7.432;2024-02-23T14:52:00;11.90;99.90
10051;DHT22;5065;46.942;7.432;2024-02-23T14:54:28;11.90;99.90
10051;DHT22;5065;46.942;7.432;2024-02-23T14:56:56;11.90;99.90
10051;DHT22;5065;46.942;7.432;2024-02-23T14:59:23;11.90;99.90
10051;DHT22;5065;46.942;7.432;2024-02-23T15:01:51;12.00;99.90
10051;DHT22;5065;46.942;7.432;2024-02-23T15:04:18;12.00;99.90
10051;DHT22;5065;46.942;7.432;2024-02-23T15:06:47;12.10;99.90
10051;DHT22;5065;46.942;7.432;2024-02-23T15:09:14;12.10;99.90
10051;DHT22;5065;46.942;7.432;2024-02-23T15:11:42;12.10;99.90
10051;DHT22;5065;46.942;7.432;2024-02-23T15:14:10;12.10;99.90
10051;DHT22;5065;46.942;7.432;2024-02-23T15:16:37;12.10;99.90
10051;DHT22;5065;46.942;7.432;2024-02-23T15:19:04;12.10;99.90
10051;DHT22;5065;46.942;7.432;2024-02-23T15:21:31;12.10;99.90
10051;DHT22;5065;46.942;7.432;2024-02-23T15:24:00;12.10;99.90
10051;DHT22;5065;46.942;7.432;2024-02-23T15:26:28;12.20;99.90
10051;DHT22;5065;46.942;7.432;2024-02-23T15:28:57;12.10;99.90
10051;DHT22;5065;46.942;7.432;2024-02-23T15:31:25;12.00;99.90
10051;DHT22;5065;46.942;7.432;2024-02-23T15:33:52;11.90;99.90
10051;DHT22;5065;46.942;7.432;2024-02-23T15:36:22;11.90;99.90
10051;DHT22;5065;46.942;7.432;2024-02-23T15:38:49;11.90;99.90
10051;DHT22;5065;46.942;7.432;2024-02-23T15:41:18;11.80;99.90
10051;DHT22;5065;46.942;7.432;2024-02-23T15:43:45;11.80;99.90
10051;DHT22;5065;46.942;7.432;2024-02-23T15:46:14;11.80;99.90
10051;DHT22;5065;46.942;7.432;2024-02-23T15:48:42;11.80;99.90
10051;DHT22;5065;46.942;7.432;2024-02-23T15:51:09;11.80;99.90
10051;DHT22;5065;46.942;7.432;2024-02-23T15:53:36;11.80;99.90
10051;DHT22;5065;46.942;7.432;2024-02-23T15:56:03;11.80;99.90
10051;DHT22;5065;46.942;7.432;2024-02-23T15:58:30;11.70;99.90
10051;DHT22;5065;46.942;7.432;2024-02-23T16:00:58;11.70;99.90
10051;DHT22;5065;46.942;7.432;2024-02-23T16:03:26;11.70;99.90